NCAR-RAP Real-Time Weather Data

Output produced by METARs form (30 September 2016  04:54 UTC)
found at http://weather.rap.ucar.edu/surface/
 
Conditions at: KSDF observed 30 September 2016  03:56 UTC
Temperature: 14.4°C (58°F)
Dewpoint: 12.2°C (54°F) [RH = 87%]
Pressure (altimeter): 30.08 inches Hg (1018.7 mb)
[Sea-level pressure: 1018.3 mb]
Winds: calm
Visibility: 10 or more miles (16+ km)
Ceiling: 8000 feet AGL
Clouds: few clouds at 5500 feet AGL
broken clouds at 8000 feet AGL
overcast cloud deck at 9500 feet AGL
Present Weather: no significant weather observed at this time
KSDF 300356Z 00000KT 10SM FEW055 BKN080 OVC095 14/12 A3008 RMK AO2 SLP183 T01440122